Time;durP1;ratioP1;P1;durP2;ratioP2;P2;SDS_P1;SDS_P2;PMS_P1;PMS_P2;Temp;Humidity;BMP_temperature;BMP_pressure;BME280_temperature;BME280_humidity;BME280_pressure;Samples;Min_cycle;Max_cycle;Signal;HPM_P1;HPM_P2
2022/03/11 00:00:16;;;;;;;10.53;4.90;;;;;;;-8.27;58.00;96859.20;1690216;85;21031;-69
2022/03/11 00:02:47;;;;;;;8.40;4.58;;;;;;;-8.31;58.45;96862.73;1690268;85;21038;-69
2022/03/11 00:05:14;;;;;;;6.67;3.73;;;;;;;-8.32;58.44;96863.50;1690370;84;21022;-69
2022/03/11 00:07:41;;;;;;;8.03;3.70;;;;;;;-8.42;58.72;96858.52;1689954;85;21049;-69
2022/03/11 00:10:09;;;;;;;7.57;4.17;;;;;;;-8.50;60.62;96860.51;1690358;84;21022;-69
2022/03/11 00:12:38;;;;;;;7.47;4.10;;;;;;;-8.62;59.72;96864.31;1690057;85;21054;-69
2022/03/11 00:15:06;;;;;;;8.23;3.77;;;;;;;-8.66;59.26;96863.61;1690068;85;21026;-69
2022/03/11 00:17:34;;;;;;;8.27;3.70;;;;;;;-8.65;59.29;96859.38;1690464;85;20970;-69
2022/03/11 00:20:01;;;;;;;4.50;3.07;;;;;;;-8.69;59.68;96855.70;1690351;84;21030;-69
2022/03/11 00:22:28;;;;;;;8.70;3.57;;;;;;;-8.67;59.68;96852.84;1690199;84;20997;-69
2022/03/11 00:24:55;;;;;;;4.10;2.60;;;;;;;-8.81;59.35;96862.06;1690226;85;21019;-69
2022/03/11 00:27:22;;;;;;;7.67;3.83;;;;;;;-8.86;59.50;96861.22;1690025;85;20987;-69
2022/03/11 00:29:49;;;;;;;5.17;2.90;;;;;;;-8.94;59.61;96858.09;1690101;85;21504;-69
2022/03/11 00:32:15;;;;;;;5.90;2.40;;;;;;;-8.97;59.55;96865.50;1690454;85;20963;-69
2022/03/11 00:34:41;;;;;;;8.00;4.37;;;;;;;-9.03;60.75;96859.94;1690253;85;21543;-69
2022/03/11 00:37:09;;;;;;;5.37;2.90;;;;;;;-9.08;59.99;96860.86;1690129;85;20995;-69
2022/03/11 00:39:36;;;;;;;3.80;2.30;;;;;;;-9.08;61.77;96858.70;1690308;85;21478;-69
2022/03/11 00:42:02;;;;;;;6.77;3.57;;;;;;;-9.15;61.40;96857.33;1690016;85;21003;-69
2022/03/11 00:44:30;;;;;;;7.80;3.70;;;;;;;-9.20;60.76;96853.14;1690242;85;20990;-69
2022/03/11 00:46:57;;;;;;;4.17;3.10;;;;;;;-9.15;60.77;96858.24;1690209;85;21088;-69
2022/03/11 00:49:23;;;;;;;11.30;3.97;;;;;;;-9.13;60.74;96858.34;1690092;85;21030;-69
2022/03/11 00:51:50;;;;;;;5.63;3.20;;;;;;;-9.19;60.47;96857.89;1690316;85;21018;-69
2022/03/11 00:54:16;;;;;;;6.90;3.67;;;;;;;-9.26;60.17;96863.30;1690279;84;21481;-69
2022/03/11 00:56:43;;;;;;;5.13;2.50;;;;;;;-9.33;60.76;96855.92;1690245;85;21087;-69
2022/03/11 00:59:10;;;;;;;5.07;3.03;;;;;;;-9.34;60.87;96865.66;1690086;84;20971;-69
2022/03/11 01:01:36;;;;;;;5.67;3.50;;;;;;;-9.36;60.89;96864.25;1690208;85;21117;-69
2022/03/11 01:04:03;;;;;;;5.73;3.50;;;;;;;-9.38;61.23;96869.23;1690147;85;21068;-69
2022/03/11 01:06:30;;;;;;;9.43;3.80;;;;;;;-9.32;61.10;96867.92;1690305;85;20979;-69
2022/03/11 01:08:56;;;;;;;7.10;3.37;;;;;;;-9.32;61.24;96862.81;1699772;84;21085;-69
2022/03/11 01:11:23;;;;;;;6.20;3.13;;;;;;;-9.35;61.11;96871.13;1677402;84;21077;-69
2022/03/11 01:13:50;;;;;;;5.37;2.90;;;;;;;-9.42;61.14;96867.63;1703883;84;21024;-69
2022/03/11 01:16:17;;;;;;;3.23;2.03;;;;;;;-9.38;61.30;96868.34;1704008;84;21017;-69
2022/03/11 01:18:44;;;;;;;5.53;3.27;;;;;;;-9.42;61.48;96869.78;1703865;84;21038;-69
2022/03/11 01:21:11;;;;;;;8.30;3.53;;;;;;;-9.51;61.89;96862.67;1704047;84;21045;-69
2022/03/11 01:23:38;;;;;;;19.63;7.10;;;;;;;-9.60;63.95;96865.41;1703964;84;21022;-69
2022/03/11 01:26:05;;;;;;;12.93;5.43;;;;;;;-9.58;66.54;96868.95;1703953;84;21022;-69
2022/03/11 01:28:32;;;;;;;10.17;5.20;;;;;;;-9.65;66.26;96874.74;1703808;84;21065;-69
2022/03/11 01:30:59;;;;;;;10.00;5.27;;;;;;;-9.68;64.94;96873.23;1703933;84;21452;-69
2022/03/11 01:33:27;;;;;;;14.63;6.40;;;;;;;-9.75;66.88;96867.13;1703896;84;21588;-69
2022/03/11 01:35:54;;;;;;;38.67;15.13;;;;;;;-9.81;66.66;96864.99;1704197;84;21005;-69
2022/03/11 01:38:20;;;;;;;37.57;14.23;;;;;;;-9.85;66.48;96870.25;1703938;84;21631;-69
2022/03/11 01:40:47;;;;;;;20.20;8.70;;;;;;;-9.77;66.88;96869.58;1704025;84;20994;-69
2022/03/11 01:43:17;;;;;;;9.97;5.07;;;;;;;-9.73;66.58;96871.59;1704050;84;21085;-69
2022/03/11 01:45:44;;;;;;;6.20;3.60;;;;;;;-9.61;65.30;96860.17;1703878;84;20974;-69
2022/03/11 01:48:12;;;;;;;3.50;2.27;;;;;;;-9.60;64.42;96859.39;1704081;84;21511;-69
2022/03/11 01:50:40;;;;;;;9.47;3.77;;;;;;;-9.58;64.05;96860.02;1703936;84;21005;-69
2022/03/11 01:53:09;;;;;;;8.30;3.33;;;;;;;-9.72;65.17;96863.56;1703666;84;21101;-69
2022/03/11 01:55:37;;;;;;;7.53;3.90;;;;;;;-9.75;65.91;96856.55;1703911;84;21021;-69
2022/03/11 01:58:05;;;;;;;11.73;5.87;;;;;;;-9.77;66.57;96854.66;1703858;84;21099;-69
2022/03/11 02:00:40;;;;;;;17.63;7.80;;;;;;;-9.84;67.59;96859.65;1703804;84;20982;-69
2022/03/11 02:03:05;;;;;;;16.70;7.90;;;;;;;-9.83;67.29;96855.03;1704100;84;20994;-69
2022/03/11 02:05:32;;;;;;;13.07;6.53;;;;;;;-9.84;65.71;96859.65;1703946;84;21559;-69
2022/03/11 02:07:59;;;;;;;9.53;4.60;;;;;;;-9.94;66.51;96862.25;1701232;84;21164;-69
2022/03/11 02:10:29;;;;;;;10.33;5.23;;;;;;;-9.95;66.97;96866.47;1690301;84;21057;-69
2022/03/11 02:12:57;;;;;;;15.60;7.80;;;;;;;-9.91;66.53;96866.31;1690416;85;21031;-70
2022/03/11 02:15:24;;;;;;;12.23;5.70;;;;;;;-9.86;66.38;96854.80;1690323;84;21516;-69
2022/03/11 02:17:52;;;;;;;20.07;9.07;;;;;;;-9.93;66.85;96862.34;1690313;85;21026;-69
2022/03/11 02:20:18;;;;;;;12.13;6.37;;;;;;;-9.83;66.79;96859.78;1690242;85;21006;-69
2022/03/11 02:22:50;;;;;;;9.00;4.70;;;;;;;-9.82;66.03;96852.61;1690412;85;21492;-69
2022/03/11 02:25:17;;;;;;;9.80;4.37;;;;;;;-9.77;65.17;96853.37;1690348;85;21030;-69
2022/03/11 02:27:46;;;;;;;8.90;4.73;;;;;;;-9.68;64.79;96857.91;1690235;85;21010;-69
2022/03/11 02:30:21;;;;;;;6.83;3.83;;;;;;;-9.68;64.64;96855.34;1690079;85;21027;-69
2022/03/11 02:32:48;;;;;;;9.20;4.53;;;;;;;-9.69;65.53;96859.58;1690422;85;20990;-69
2022/03/11 02:35:18;;;;;;;12.10;5.03;;;;;;;-9.81;65.46;96867.55;1690097;84;21070;-69
2022/03/11 02:37:45;;;;;;;7.70;3.57;;;;;;;-9.85;65.45;96870.61;1690383;85;21058;-69
2022/03/11 02:40:12;;;;;;;8.77;4.13;;;;;;;-9.92;65.41;96865.82;1690403;84;21082;-69
2022/03/11 02:42:38;;;;;;;8.23;4.07;;;;;;;-9.88;65.22;96857.61;1690157;85;21022;-69
2022/03/11 02:45:07;;;;;;;6.17;3.13;;;;;;;-9.79;64.59;96855.80;1690198;84;21022;-69
2022/03/11 02:47:34;;;;;;;7.27;3.43;;;;;;;-9.76;64.15;96845.81;1690318;84;21022;-69
2022/03/11 02:50:01;;;;;;;5.33;3.20;;;;;;;-9.73;64.20;96850.27;1690232;84;21023;-69
2022/03/11 02:52:28;;;;;;;8.23;3.57;;;;;;;-9.77;64.16;96859.37;1690412;84;21071;-69
2022/03/11 02:54:56;;;;;;;6.07;3.50;;;;;;;-9.70;64.62;96861.64;1690272;85;21034;-69
2022/03/11 02:57:23;;;;;;;9.97;3.93;;;;;;;-9.70;64.08;96862.91;1690185;85;21022;-69
2022/03/11 02:59:49;;;;;;;10.30;4.37;;;;;;;-9.88;65.54;96866.16;1690283;85;20986;-69
2022/03/11 03:02:16;;;;;;;6.47;3.00;;;;;;;-9.90;65.96;96866.45;1690260;85;21018;-69
2022/03/11 03:04:43;;;;;;;6.33;3.17;;;;;;;-9.95;64.90;96869.37;1690361;85;21011;-69
2022/03/11 03:07:11;;;;;;;13.33;4.30;;;;;;;-10.02;64.65;96875.29;1690276;85;21497;-69
2022/03/11 03:09:41;;;;;;;7.60;3.93;;;;;;;-9.87;64.94;96873.06;1700576;84;21030;-69
2022/03/11 03:12:08;;;;;;;7.83;3.30;;;;;;;-9.75;64.87;96871.88;1703884;84;21058;-69
2022/03/11 03:14:35;;;;;;;10.33;4.03;;;;;;;-9.91;65.23;96873.58;1703906;84;21515;-69
2022/03/11 03:17:02;;;;;;;8.80;3.43;;;;;;;-9.89;66.02;96877.16;1703904;84;21029;-69
2022/03/11 03:19:28;;;;;;;8.57;3.57;;;;;;;-10.01;66.00;96874.50;1704153;84;21511;-69
2022/03/11 03:21:55;;;;;;;9.17;3.67;;;;;;;-10.11;65.84;96878.38;1703972;84;21082;-69
2022/03/11 03:24:22;;;;;;;10.73;3.40;;;;;;;-10.10;66.34;96886.95;1703649;84;21049;-69
2022/03/11 03:26:48;;;;;;;6.50;2.60;;;;;;;-10.17;65.82;96879.56;1704019;84;21017;-69
2022/03/11 03:29:15;;;;;;;6.87;3.30;;;;;;;-10.27;65.17;96883.91;1704017;84;21001;-69
2022/03/11 03:31:41;;;;;;;7.30;2.87;;;;;;;-10.30;65.02;96880.27;1704001;84;21033;-69
2022/03/11 03:34:08;;;;;;;8.90;2.70;;;;;;;-10.25;64.81;96875.12;1704057;84;21021;-69
2022/03/11 03:36:35;;;;;;;7.00;2.93;;;;;;;-10.18;64.93;96887.58;1703973;84;20978;-69
2022/03/11 03:39:01;;;;;;;10.50;3.53;;;;;;;-10.10;64.71;96883.12;1703902;84;21108;-69
2022/03/11 03:41:28;;;;;;;8.53;3.03;;;;;;;-10.11;64.41;96888.58;1704107;84;21021;-69
2022/03/11 03:43:55;;;;;;;4.80;2.77;;;;;;;-10.02;64.38;96891.00;1703900;84;21005;-69
2022/03/11 03:46:22;;;;;;;5.17;2.57;;;;;;;-9.95;64.14;96890.72;1703601;84;21116;-69
2022/03/11 03:48:49;;;;;;;6.10;2.83;;;;;;;-10.03;63.44;96881.53;1704003;84;21053;-69
2022/03/11 03:51:16;;;;;;;3.30;2.07;;;;;;;-10.03;63.41;96897.77;1704175;84;21082;-69
2022/03/11 03:53:42;;;;;;;3.97;2.30;;;;;;;-10.15;63.57;96896.78;1703750;84;21002;-69
2022/03/11 03:56:09;;;;;;;6.17;2.33;;;;;;;-10.04;63.80;96892.14;1704178;84;21054;-69
2022/03/11 03:58:36;;;;;;;5.80;2.43;;;;;;;-10.10;63.01;96895.48;1703880;84;20978;-70
2022/03/11 04:01:02;;;;;;;5.53;2.47;;;;;;;-10.10;63.18;96898.43;1704008;84;21041;-69
2022/03/11 04:03:29;;;;;;;5.80;2.93;;;;;;;-10.10;62.75;96892.05;1704363;84;21505;-69
2022/03/11 04:05:57;;;;;;;15.90;5.77;;;;;;;-10.07;62.91;96898.67;1703072;84;21042;-69
2022/03/11 04:08:25;;;;;;;20.03;6.20;;;;;;;-10.05;62.96;96897.14;1702270;84;21045;-69
2022/03/11 04:10:52;;;;;;;8.07;3.30;;;;;;;-10.26;62.29;96898.83;1690247;84;21026;-69
2022/03/11 04:13:19;;;;;;;6.40;2.23;;;;;;;-10.28;63.48;96902.59;1690318;85;21469;-69
2022/03/11 04:15:46;;;;;;;3.37;1.73;;;;;;;-10.32;62.67;96899.66;1689850;84;21035;-69
2022/03/11 04:18:12;;;;;;;4.00;2.40;;;;;;;-10.43;63.06;96899.14;1690415;85;21062;-69
2022/03/11 04:20:40;;;;;;;5.17;2.37;;;;;;;-10.45;63.39;96892.66;1690217;85;21017;-69
2022/03/11 04:23:07;;;;;;;5.07;2.70;;;;;;;-10.61;65.59;96901.08;1690336;85;20983;-69
2022/03/11 04:25:34;;;;;;;8.77;2.63;;;;;;;-10.59;65.41;96900.83;1690005;84;21018;-69
2022/03/11 04:28:00;;;;;;;9.23;3.20;;;;;;;-10.72;66.12;96905.30;1690066;85;21026;-69
2022/03/11 04:30:27;;;;;;;5.33;2.47;;;;;;;-10.82;66.16;96911.30;1689986;85;21137;-69
2022/03/11 04:32:54;;;;;;;4.63;2.00;;;;;;;-10.75;65.34;96906.33;1670777;85;20990;-69
2022/03/11 04:35:21;;;;;;;4.97;2.33;;;;;;;-10.76;64.43;96908.00;1689873;84;21082;-69
2022/03/11 04:37:47;;;;;;;5.20;2.57;;;;;;;-11.00;65.00;96902.12;1690176;85;21520;-69
2022/03/11 04:40:14;;;;;;;4.77;2.60;;;;;;;-11.00;64.70;96899.18;1690597;84;21484;-69
2022/03/11 04:42:41;;;;;;;9.13;3.80;;;;;;;-11.08;66.29;96898.92;1690171;84;21464;-69
2022/03/11 04:45:10;;;;;;;10.47;5.57;;;;;;;-11.08;66.29;96898.92;1690209;84;21058;-68
2022/03/11 04:47:36;;;;;;;16.10;8.43;;;;;;;-10.93;66.19;96904.42;1690160;85;20999;-67
2022/03/11 04:50:03;;;;;;;23.13;4.20;;;;;;;-10.93;66.19;96904.42;1690295;85;21449;-67
2022/03/11 04:52:30;;;;;;;8.30;3.77;;;;;;;-10.97;66.02;96907.08;1690327;85;20990;-66
2022/03/11 04:54:57;;;;;;;7.00;3.40;;;;;;;-10.94;65.88;96889.88;1690219;84;21042;-66
2022/03/11 04:57:23;;;;;;;14.83;3.70;;;;;;;-10.74;65.56;96905.55;1690352;85;21042;-66
2022/03/11 04:59:50;;;;;;;10.30;3.93;;;;;;;-10.67;65.05;96912.56;1690186;85;21525;-65
2022/03/11 05:02:28;;;;;;;10.13;4.57;;;;;;;-10.85;65.26;96908.49;1690513;84;20967;-66
2022/03/11 05:04:55;;;;;;;7.20;3.73;;;;;;;-10.97;65.64;96908.73;1690016;85;20999;-65
2022/03/11 05:07:22;;;;;;;9.67;4.03;;;;;;;-10.99;66.19;96921.34;1690348;84;21769;-66
2022/03/11 05:09:49;;;;;;;7.27;3.60;;;;;;;-10.85;65.70;96915.26;1697759;84;21013;-65
2022/03/11 05:12:15;;;;;;;9.23;3.57;;;;;;;-10.85;65.84;96917.41;1704021;84;21069;-65
2022/03/11 05:14:42;;;;;;;8.43;3.40;;;;;;;-10.79;64.99;96919.19;1704071;84;21120;-65
2022/03/11 05:17:08;;;;;;;9.43;3.83;;;;;;;-10.74;64.57;96914.09;1703917;84;20982;-65
2022/03/11 05:19:35;;;;;;;7.53;4.60;;;;;;;-10.83;65.29;96923.90;1703933;84;21017;-65
2022/03/11 05:22:02;;;;;;;17.93;7.43;;;;;;;-10.74;66.12;96917.91;1704052;84;21596;-65
2022/03/11 05:24:29;;;;;;;23.33;9.10;;;;;;;-10.76;65.10;96919.47;1704014;84;21037;-66
2022/03/11 05:26:56;;;;;;;23.40;11.40;;;;;;;-10.77;66.25;96924.43;1703650;84;21029;-65
2022/03/11 05:29:22;;;;;;;22.63;10.50;;;;;;;-10.55;66.46;96922.02;1703525;84;21026;-65
2022/03/11 05:31:49;;;;;;;26.23;12.53;;;;;;;-10.50;66.38;96923.28;1703829;84;21058;-66
2022/03/11 05:34:16;;;;;;;32.80;11.37;;;;;;;-10.46;66.36;96920.20;1703683;84;21030;-65
2022/03/11 05:36:42;;;;;;;25.93;11.50;;;;;;;-10.35;65.20;96925.81;1703875;84;21101;-66
2022/03/11 05:39:08;;;;;;;20.20;10.97;;;;;;;-10.31;65.21;96927.83;1703869;84;21508;-66
2022/03/11 05:41:35;;;;;;;21.53;9.97;;;;;;;-10.25;65.64;96927.43;1704087;84;21528;-66
2022/03/11 05:44:01;;;;;;;21.67;10.03;;;;;;;-10.07;64.34;96931.86;1703550;84;21026;-66
2022/03/11 05:46:28;;;;;;;15.73;8.10;;;;;;;-9.90;64.37;96927.73;1703524;84;21022;-66
2022/03/11 05:48:55;;;;;;;19.63;8.50;;;;;;;-9.77;63.59;96924.49;1704001;84;21074;-66
2022/03/11 05:51:21;;;;;;;18.90;9.27;;;;;;;-9.83;62.75;96922.70;1703818;84;21085;-66
2022/03/11 05:53:48;;;;;;;26.03;15.20;;;;;;;-9.72;63.18;96924.47;1704052;84;21001;-65
2022/03/11 05:56:15;;;;;;;19.23;10.17;;;;;;;-9.52;63.47;96921.30;1703636;84;21029;-66
2022/03/11 05:58:41;;;;;;;12.37;7.00;;;;;;;-9.25;63.26;96918.74;1703606;84;21176;-65
2022/03/11 06:01:08;;;;;;;16.83;8.40;;;;;;;-9.01;62.32;96909.53;1702996;84;21144;-65
2022/03/11 06:03:35;;;;;;;15.97;8.47;;;;;;;-8.79;61.41;96912.08;1703216;84;21136;-64
2022/03/11 06:06:02;;;;;;;17.53;8.97;;;;;;;-8.67;60.49;96915.92;1702669;84;21088;-65
2022/03/11 06:08:28;;;;;;;14.20;8.37;;;;;;;-8.61;59.90;96910.02;1702904;84;21484;-64
2022/03/11 06:10:55;;;;;;;13.70;8.50;;;;;;;-8.56;58.31;96912.53;1680893;84;21121;-67
2022/03/11 06:13:22;;;;;;;24.93;12.60;;;;;;;-8.51;58.93;96917.60;1701569;84;21133;-66
2022/03/11 06:15:48;;;;;;;13.67;7.27;;;;;;;-8.41;59.72;96908.55;1702664;84;21030;-67
2022/03/11 06:18:17;;;;;;;13.60;8.37;;;;;;;-8.33;59.11;96913.81;1702916;84;21539;-65
2022/03/11 06:20:43;;;;;;;14.57;7.70;;;;;;;-8.27;58.04;96918.09;1702687;84;21514;-68
2022/03/11 06:23:10;;;;;;;11.93;6.87;;;;;;;-8.11;58.28;96913.73;1701857;84;21027;-73
2022/03/11 06:25:37;;;;;;;28.63;13.93;;;;;;;-8.02;57.76;96921.59;1701833;84;21146;-69
2022/03/11 06:28:04;;;;;;;25.13;13.57;;;;;;;-7.86;57.31;96914.25;1701619;84;21098;-64
2022/03/11 06:30:31;;;;;;;16.13;9.10;;;;;;;-7.68;57.43;96912.13;1702100;84;21574;-65
2022/03/11 06:32:57;;;;;;;18.30;10.63;;;;;;;-7.59;56.89;96907.64;1701717;84;21051;-66
2022/03/11 06:35:24;;;;;;;11.70;6.53;;;;;;;-7.49;56.17;96907.52;1711718;83;21045;-68
2022/03/11 06:37:50;;;;;;;14.87;6.63;;;;;;;-7.45;55.76;96915.05;1687350;84;21026;-66
2022/03/11 06:40:18;;;;;;;16.27;8.27;;;;;;;-7.39;55.48;96915.47;1714232;84;21553;-67
2022/03/11 06:42:48;;;;;;;17.67;7.57;;;;;;;-7.32;55.22;96912.95;1713843;83;21077;-70
2022/03/11 06:45:16;;;;;;;14.57;7.97;;;;;;;-7.16;55.56;96909.78;1713303;83;21106;-71
2022/03/11 06:47:45;;;;;;;10.57;5.07;;;;;;;-6.99;55.53;96908.89;1713842;83;21082;-68
2022/03/11 06:50:12;;;;;;;16.97;8.03;;;;;;;-6.85;54.25;96912.42;1713612;83;21074;-70
2022/03/11 06:52:39;;;;;;;11.93;5.73;;;;;;;-6.70;53.96;96907.82;1713616;84;21034;-67
2022/03/11 06:55:07;;;;;;;11.93;6.60;;;;;;;-6.64;54.54;96912.11;1714085;84;21094;-70
2022/03/11 06:57:37;;;;;;;14.33;7.60;;;;;;;-6.48;54.53;96903.36;1709413;83;21034;-69
2022/03/11 07:00:06;;;;;;;18.80;10.80;;;;;;;-6.31;54.03;96900.24;1701703;84;21051;-68
2022/03/11 07:02:32;;;;;;;25.67;13.67;;;;;;;-6.17;53.57;96908.00;1703410;84;21135;-66
2022/03/11 07:04:59;;;;;;;8.80;4.00;;;;;;;-6.02;52.74;96909.01;1703470;84;20988;-65
2022/03/11 07:07:28;;;;;;;10.23;4.90;;;;;;;-5.97;50.46;96897.72;1700200;84;21012;-65
2022/03/11 07:09:54;;;;;;;23.10;6.50;;;;;;;-5.78;50.93;96897.22;1693362;82;21555;-66
2022/03/11 07:12:20;;;;;;;6.60;3.50;;;;;;;-5.56;51.23;96895.23;1684076;84;21048;-66
2022/03/11 07:14:48;;;;;;;8.27;3.03;;;;;;;-5.46;50.14;96899.28;1676923;85;21099;-70
2022/03/11 07:17:15;;;;;;;15.63;4.03;;;;;;;-5.35;50.23;96890.55;1677116;85;21033;-72
2022/03/11 07:19:42;;;;;;;13.60;3.87;;;;;;;-5.23;49.61;96895.17;1677968;85;21131;-65
2022/03/11 07:22:08;;;;;;;5.70;2.87;;;;;;;-5.15;48.23;96888.34;1677682;85;21006;-65
2022/03/11 07:24:35;;;;;;;5.03;2.70;;;;;;;-5.25;46.51;96893.30;1677893;85;20994;-69
2022/03/11 07:27:02;;;;;;;17.03;4.43;;;;;;;-5.19;48.36;96892.78;1678036;85;21519;-69
2022/03/11 07:29:28;;;;;;;20.00;6.03;;;;;;;-5.10;48.26;96886.53;1677876;85;21523;-66
2022/03/11 07:31:55;;;;;;;14.20;5.87;;;;;;;-4.90;48.68;96890.74;1677146;85;21179;-69
2022/03/11 07:34:23;;;;;;;11.07;3.70;;;;;;;-4.64;49.16;96890.62;1676917;85;21071;-69
2022/03/11 07:36:50;;;;;;;3.87;2.67;;;;;;;-4.49;47.01;96884.21;1677209;85;21575;-67
2022/03/11 07:39:17;;;;;;;4.90;2.70;;;;;;;-4.26;45.40;96883.40;1678280;85;21046;-68
2022/03/11 07:41:44;;;;;;;3.67;2.20;;;;;;;-4.17;45.38;96878.39;1677816;85;21002;-65
2022/03/11 07:44:10;;;;;;;6.10;2.83;;;;;;;-4.03;44.19;96884.36;1677488;85;21072;-68
2022/03/11 07:46:37;;;;;;;5.40;3.00;;;;;;;-3.83;44.78;96877.77;1677292;85;22269;-67
2022/03/11 07:49:03;;;;;;;4.53;2.50;;;;;;;-3.71;44.14;96880.14;1677728;85;21053;-70
2022/03/11 07:51:30;;;;;;;4.87;2.70;;;;;;;-3.57;44.28;96879.23;1677445;85;21693;-73
2022/03/11 07:53:58;;;;;;;5.50;2.77;;;;;;;-3.46;44.33;96878.95;1676742;85;21119;-67
2022/03/11 07:56:25;;;;;;;5.50;3.27;;;;;;;-3.33;43.79;96877.52;1677645;85;21101;-68
2022/03/11 07:58:54;;;;;;;6.60;2.10;;;;;;;-3.18;43.39;96880.06;1676627;85;21576;-66
2022/03/11 08:01:20;;;;;;;6.10;3.37;;;;;;;-3.14;42.96;96874.27;1677425;85;21040;-66
2022/03/11 08:03:46;;;;;;;9.30;4.23;;;;;;;-3.10;41.86;96873.23;1676663;85;21088;-67
2022/03/11 08:06:13;;;;;;;8.47;4.00;;;;;;;-3.13;41.21;96868.29;1676350;85;21693;-67
2022/03/11 08:08:41;;;;;;;10.40;4.90;;;;;;;-3.17;42.07;96871.53;1677105;85;21112;-67
2022/03/11 08:11:08;;;;;;;6.73;4.33;;;;;;;-3.01;42.30;96871.95;1682452;85;21102;-66
2022/03/11 08:13:35;;;;;;;3.40;1.97;;;;;;;-2.79;43.11;96871.00;1683794;85;21084;-66
2022/03/11 08:16:03;;;;;;;5.60;2.83;;;;;;;-2.73;40.28;96868.73;1685487;85;21558;-66
2022/03/11 08:18:30;;;;;;;6.03;3.40;;;;;;;-2.69;41.06;96859.46;1685334;85;21586;-66
2022/03/11 08:20:57;;;;;;;6.97;3.20;;;;;;;-2.52;43.38;96856.44;1685718;85;21012;-69
2022/03/11 08:23:23;;;;;;;6.43;3.13;;;;;;;-2.29;42.26;96854.66;1685825;85;21021;-69
2022/03/11 08:25:50;;;;;;;4.73;2.63;;;;;;;-2.17;40.63;96854.36;1684723;85;21131;-67
2022/03/11 08:28:21;;;;;;;4.70;2.67;;;;;;;-2.19;40.62;96854.31;1684968;85;21539;-66
2022/03/11 08:30:45;;;;;;;5.30;2.70;;;;;;;-2.04;41.80;96857.16;1685368;85;21052;-69
2022/03/11 08:33:14;;;;;;;5.90;3.00;;;;;;;-2.02;39.96;96851.25;1685591;85;21032;-69
2022/03/11 08:35:41;;;;;;;6.47;3.73;;;;;;;-1.93;40.82;96851.25;1685213;85;21495;-69
2022/03/11 08:38:07;;;;;;;4.73;2.73;;;;;;;-1.86;40.66;96836.52;1684101;85;21147;-66
2022/03/11 08:40:35;;;;;;;6.67;3.93;;;;;;;-1.96;40.66;96845.11;1684933;85;21056;-70
2022/03/11 08:43:03;;;;;;;8.83;4.37;;;;;;;-2.13;39.56;96850.25;1685691;85;21547;-66
2022/03/11 08:45:32;;;;;;;5.40;2.87;;;;;;;-2.11;39.67;96857.28;1685228;85;21075;-68
2022/03/11 08:47:58;;;;;;;6.50;3.30;;;;;;;-2.02;38.91;96851.66;1684817;85;21128;-71
2022/03/11 08:50:25;;;;;;;5.97;3.47;;;;;;;-2.01;39.38;96849.17;1685781;85;21025;-66
2022/03/11 08:52:53;;;;;;;4.60;2.90;;;;;;;-1.93;39.53;96847.38;1685603;85;21031;-68
2022/03/11 08:55:20;;;;;;;8.83;4.20;;;;;;;-2.03;38.23;96840.44;1685716;85;21041;-66
2022/03/11 08:57:50;;;;;;;4.10;2.43;;;;;;;-2.00;38.97;96847.46;1685605;85;21080;-67
2022/03/11 09:00:21;;;;;;;3.80;2.63;;;;;;;-1.82;39.78;96843.59;1684419;85;21005;-68
2022/03/11 09:02:49;;;;;;;5.97;3.12;;;;;;;-1.55;40.42;96842.34;1684827;85;21585;-70
2022/03/11 09:05:18;;;;;;;4.43;2.67;;;;;;;-1.39;39.39;96842.66;1684792;85;21056;-68
2022/03/11 09:07:45;;;;;;;6.50;2.90;;;;;;;-1.28;38.99;96831.54;1685725;85;21001;-71
2022/03/11 09:10:13;;;;;;;6.50;3.33;;;;;;;-1.03;39.84;96832.27;1685261;85;21212;-69
2022/03/11 09:12:41;;;;;;;6.57;3.23;;;;;;;-1.11;36.61;96824.14;1685975;85;21009;-71
2022/03/11 09:15:10;;;;;;;6.03;2.87;;;;;;;-1.14;36.31;96831.75;1684808;85;21617;-68
2022/03/11 09:17:37;;;;;;;4.67;2.87;;;;;;;-0.99;37.05;96826.39;1685343;85;21104;-67
2022/03/11 09:20:06;;;;;;;5.30;3.17;;;;;;;-0.82;36.53;96823.69;1684801;85;21150;-68
2022/03/11 09:22:34;;;;;;;5.47;3.80;;;;;;;-0.73;35.84;96819.80;1691336;84;21082;-69
2022/03/11 09:25:04;;;;;;;7.57;3.70;;;;;;;-0.64;37.72;96815.42;1695951;84;21100;-70
2022/03/11 09:27:31;;;;;;;3.13;2.17;;;;;;;-0.56;37.00;96817.05;1702895;84;21109;-69
2022/03/11 09:29:57;;;;;;;3.63;2.03;;;;;;;-0.49;36.50;96817.39;1698368;84;21057;-74
2022/03/11 09:32:25;;;;;;;6.17;4.27;;;;;;;-0.81;33.23;96816.38;1693141;84;21105;-70
2022/03/11 09:34:53;;;;;;;6.17;3.47;;;;;;;-0.65;34.60;96811.08;1694667;84;20998;-75
2022/03/11 09:37:20;;;;;;;5.03;2.77;;;;;;;-0.47;32.82;96809.27;1695010;84;21362;-74
2022/03/11 09:39:47;;;;;;;13.50;7.43;;;;;;;-0.46;33.81;96806.27;1695793;83;21209;-69
2022/03/11 09:42:13;;;;;;;7.73;3.40;;;;;;;-0.57;36.76;96808.81;1691932;84;21034;-70
2022/03/11 09:44:41;;;;;;;4.57;3.00;;;;;;;-0.34;37.48;96800.73;1691107;84;21005;-68
2022/03/11 09:47:08;;;;;;;6.07;3.40;;;;;;;-0.24;36.41;96802.89;1703112;84;21543;-68
2022/03/11 09:49:36;;;;;;;3.67;2.50;;;;;;;-0.18;36.17;96796.65;1668733;86;21140;-69
2022/03/11 09:52:07;;;;;;;4.93;2.60;;;;;;;0.05;36.03;96794.13;1669629;85;21474;-74
2022/03/11 09:54:34;;;;;;;3.60;2.23;;;;;;;0.08;32.80;96789.09;1669955;86;21043;-74
2022/03/11 09:57:01;;;;;;;3.53;2.10;;;;;;;0.01;34.55;96787.06;1669771;85;21616;-70
2022/03/11 09:59:28;;;;;;;3.60;2.07;;;;;;;-0.24;33.14;96784.73;1670335;84;21059;-71
2022/03/11 10:01:57;;;;;;;3.00;2.03;;;;;;;-0.01;35.34;96784.39;1714083;84;21517;-68
2022/03/11 10:04:25;;;;;;;4.00;2.43;;;;;;;-0.05;35.05;96779.50;1714210;83;21035;-69
2022/03/11 10:06:54;;;;;;;5.87;2.93;;;;;;;0.25;36.27;96783.27;1714848;83;21635;-68
2022/03/11 10:09:30;;;;;;;3.53;2.23;;;;;;;0.46;35.63;96780.23;1715059;84;21579;-67
2022/03/11 10:11:58;;;;;;;4.70;3.00;;;;;;;0.71;33.92;96779.48;1715173;84;21157;-67
2022/03/11 10:14:38;;;;;;;5.57;2.80;;;;;;;0.61;32.17;96774.34;1715345;84;21590;-67
2022/03/11 10:17:08;;;;;;;4.97;3.10;;;;;;;0.36;32.36;96771.19;1714157;84;21145;-69
2022/03/11 10:19:35;;;;;;;4.60;2.20;;;;;;;0.57;32.98;96771.14;1714355;84;21042;-67
2022/03/11 10:22:02;;;;;;;4.97;2.93;;;;;;;0.69;33.63;96771.16;1715476;83;21380;-67
2022/03/11 10:24:29;;;;;;;7.33;3.30;;;;;;;0.91;35.52;96771.53;1715269;84;21086;-67
2022/03/11 10:26:58;;;;;;;5.57;2.83;;;;;;;0.97;34.12;96758.78;1715602;83;21635;-68
2022/03/11 10:29:34;;;;;;;4.60;2.40;;;;;;;1.07;33.54;96753.97;1715514;84;21003;-67
2022/03/11 10:32:03;;;;;;;3.93;2.90;;;;;;;1.15;33.14;96758.58;1715696;84;21513;-67
2022/03/11 10:34:34;;;;;;;4.20;2.23;;;;;;;1.25;32.47;96756.35;1715898;83;21046;-67
2022/03/11 10:37:07;;;;;;;4.47;2.73;;;;;;;1.16;29.68;96757.34;1715765;83;20967;-67
2022/03/11 10:39:37;;;;;;;;;;;;;;;0.83;31.20;96761.77;1718501;83;20982;-67
2022/03/11 10:42:27;;;;;;;3.30;1.90;;;;;;;0.97;36.00;96751.87;1716134;84;20410;-67
2022/03/11 10:45:05;;;;;;;3.37;1.97;;;;;;;1.11;32.25;96757.98;1715972;84;21461;-68
2022/03/11 10:47:35;;;;;;;4.27;2.77;;;;;;;1.03;33.05;96746.00;1715430;84;21027;-67
2022/03/11 10:50:06;;;;;;;5.13;3.20;;;;;;;1.05;32.00;96734.83;1714604;83;21098;-67
2022/03/11 10:52:43;;;;;;;6.90;3.63;;;;;;;1.32;30.70;96732.77;1713449;84;21094;-67
2022/03/11 10:55:33;;;;;;;3.67;2.53;;;;;;;1.50;29.24;96734.70;1716062;84;21027;-67
2022/03/11 10:58:05;;;;;;;3.97;2.37;;;;;;;1.48;29.42;96731.16;1715960;84;21051;-67
2022/03/11 11:00:36;;;;;;;4.40;2.60;;;;;;;2.04;35.33;96726.50;1715910;84;21469;-67
2022/03/11 11:03:06;;;;;;;8.20;5.80;;;;;;;2.43;29.03;96716.47;1715595;84;21588;-67
2022/03/11 11:05:34;;;;;;;5.87;3.80;;;;;;;3.07;30.18;96705.75;1715968;83;21018;-65
2022/03/11 11:08:04;;;;;;;11.00;5.00;;;;;;;3.45;27.76;96711.14;1715516;83;21039;-64
2022/03/11 11:10:34;;;;;;;6.27;4.20;;;;;;;3.57;27.01;96701.45;1715838;84;21102;-64
2022/03/11 11:13:01;;;;;;;3.83;2.60;;;;;;;3.85;26.31;96699.13;1713131;84;21127;-64
2022/03/11 11:15:28;;;;;;;3.40;2.60;;;;;;;3.60;27.99;96696.31;1713405;84;21462;-64
2022/03/11 11:17:55;;;;;;;4.83;3.30;;;;;;;4.22;28.86;96696.13;1712912;84;21071;-64
2022/03/11 11:20:48;;;;;;;5.20;3.33;;;;;;;4.76;28.04;96686.03;1713259;84;20991;-64
2022/03/11 11:23:16;;;;;;;12.50;2.90;;;;;;;5.23;27.97;96684.36;1712922;84;21138;-64
2022/03/11 11:25:44;;;;;;;8.43;5.67;;;;;;;5.42;26.39;96689.97;1713068;84;21066;-64
2022/03/11 11:28:16;;;;;;;6.17;3.43;;;;;;;5.67;26.50;96689.12;1713099;83;21015;-65
2022/03/11 11:30:45;;;;;;;6.03;3.80;;;;;;;5.63;25.19;96687.30;1713185;84;21126;-65